sensor_id;sensor_type;location;lat;lon;timestamp;P1;durP1;ratioP1;P2;durP2;ratioP2
66972;SDS011;53902;51.466;-2.586;2023-04-03T07:33:48;9.07;;;2.90;;
66972;SDS011;53902;51.466;-2.586;2023-04-03T18:45:48;7.28;;;3.25;;
66972;SDS011;53902;51.466;-2.586;2023-04-03T18:48:18;4.30;;;3.20;;
66972;SDS011;53902;51.466;-2.586;2023-04-03T18:56:54;7.90;;;2.97;;
66972;SDS011;53902;51.466;-2.586;2023-04-03T18:59:28;10.20;;;3.55;;
66972;SDS011;53902;51.466;-2.586;2023-04-03T19:12:47;8.77;;;4.68;;
66972;SDS011;53902;51.466;-2.586;2023-04-03T19:15:27;8.68;;;5.05;;
66972;SDS011;53902;51.466;-2.586;2023-04-03T19:17:53;12.63;;;4.68;;
66972;SDS011;53902;51.466;-2.586;2023-04-03T19:20:24;11.77;;;5.65;;
66972;SDS011;53902;51.466;-2.586;2023-04-03T19:22:51;9.52;;;5.75;;
66972;SDS011;53902;51.466;-2.586;2023-04-03T19:25:19;14.63;;;6.13;;
66972;SDS011;53902;51.466;-2.586;2023-04-03T19:27:50;11.40;;;6.13;;
66972;SDS011;53902;51.466;-2.586;2023-04-03T19:30:16;13.52;;;8.55;;
66972;SDS011;53902;51.466;-2.586;2023-04-03T19:32:42;19.70;;;10.10;;
66972;SDS011;53902;51.466;-2.586;2023-04-03T19:35:10;22.33;;;10.85;;
66972;SDS011;53902;51.466;-2.586;2023-04-03T19:37:36;12.75;;;7.38;;
66972;SDS011;53902;51.466;-2.586;2023-04-03T19:40:12;16.88;;;8.68;;
66972;SDS011;53902;51.466;-2.586;2023-04-03T19:42:49;17.23;;;8.32;;
66972;SDS011;53902;51.466;-2.586;2023-04-03T19:45:18;13.25;;;8.25;;
66972;SDS011;53902;51.466;-2.586;2023-04-03T19:47:52;13.10;;;7.90;;
66972;SDS011;53902;51.466;-2.586;2023-04-03T19:50:28;11.70;;;7.22;;
66972;SDS011;53902;51.466;-2.586;2023-04-03T19:55:27;15.48;;;6.93;;
66972;SDS011;53902;51.466;-2.586;2023-04-03T22:53:01;3.47;;;2.00;;
66972;SDS011;53902;51.466;-2.586;2023-04-03T22:55:27;5.00;;;2.22;;
66972;SDS011;53902;51.466;-2.586;2023-04-03T22:57:56;5.28;;;2.63;;
66972;SDS011;53902;51.466;-2.586;2023-04-03T23:00:46;4.38;;;2.50;;
66972;SDS011;53902;51.466;-2.586;2023-04-03T23:03:15;4.05;;;2.42;;
66972;SDS011;53902;51.466;-2.586;2023-04-03T23:05:43;4.63;;;2.40;;
66972;SDS011;53902;51.466;-2.586;2023-04-03T23:08:09;7.82;;;2.22;;
66972;SDS011;53902;51.466;-2.586;2023-04-03T23:10:34;5.15;;;2.83;;
66972;SDS011;53902;51.466;-2.586;2023-04-03T23:13:00;3.88;;;2.40;;
66972;SDS011;53902;51.466;-2.586;2023-04-03T23:15:26;5.25;;;2.28;;
66972;SDS011;53902;51.466;-2.586;2023-04-03T23:17:51;16.17;;;6.15;;
66972;SDS011;53902;51.466;-2.586;2023-04-03T23:20:17;13.15;;;5.07;;
66972;SDS011;53902;51.466;-2.586;2023-04-03T23:22:43;10.60;;;3.80;;
66972;SDS011;53902;51.466;-2.586;2023-04-03T23:25:09;5.13;;;2.58;;
66972;SDS011;53902;51.466;-2.586;2023-04-03T23:27:35;10.45;;;2.67;;
66972;SDS011;53902;51.466;-2.586;2023-04-03T23:30:01;7.93;;;2.43;;
66972;SDS011;53902;51.466;-2.586;2023-04-03T23:32:27;6.45;;;2.50;;
66972;SDS011;53902;51.466;-2.586;2023-04-03T23:34:54;4.82;;;2.00;;
66972;SDS011;53902;51.466;-2.586;2023-04-03T23:37:19;6.10;;;2.10;;
66972;SDS011;53902;51.466;-2.586;2023-04-03T23:39:45;5.57;;;1.80;;
66972;SDS011;53902;51.466;-2.586;2023-04-03T23:42:10;5.45;;;1.90;;
66972;SDS011;53902;51.466;-2.586;2023-04-03T23:44:36;6.47;;;1.77;;
66972;SDS011;53902;51.466;-2.586;2023-04-03T23:47:02;3.40;;;1.70;;
66972;SDS011;53902;51.466;-2.586;2023-04-03T23:49:27;4.13;;;1.90;;
66972;SDS011;53902;51.466;-2.586;2023-04-03T23:51:53;5.45;;;1.67;;
66972;SDS011;53902;51.466;-2.586;2023-04-03T23:54:20;6.57;;;1.60;;
66972;SDS011;53902;51.466;-2.586;2023-04-03T23:56:46;3.67;;;1.50;;
66972;SDS011;53902;51.466;-2.586;2023-04-03T23:59:12;3.13;;;1.63;;
